createdAt,value
2023-02-05T00:16:16.175Z,79.8
2023-02-05T00:31:28.574Z,83.3
2023-02-05T00:46:37.769Z,83.5
2023-02-05T01:01:48.937Z,83.7
2023-02-05T01:16:59.576Z,83.7
2023-02-05T01:32:09.814Z,83.5
2023-02-05T01:47:19.137Z,83.7
2023-02-05T02:02:29.254Z,83.7
2023-02-05T02:17:38.480Z,83.9
2023-02-05T02:32:47.567Z,83.6
2023-02-05T02:47:57.008Z,84
2023-02-05T03:03:09.479Z,84
2023-02-05T03:18:18.541Z,83.9
2023-02-05T03:33:28.153Z,83.6
2023-02-05T03:48:37.518Z,83
2023-02-05T04:03:47.090Z,83.7
2023-02-05T04:18:59.737Z,83.6
2023-02-05T04:34:11.211Z,83.5
2023-02-05T04:49:21.482Z,83.5
2023-02-05T05:04:31.069Z,83.6
2023-02-05T05:19:40.328Z,83.6
2023-02-05T05:34:50.555Z,83.5
2023-02-05T05:50:00.214Z,83.6
2023-02-05T06:05:09.569Z,83.8
2023-02-05T06:20:19.378Z,83.2
2023-02-05T06:35:28.831Z,83.6
2023-02-05T06:50:38.296Z,83.6
2023-02-05T07:05:47.820Z,83.6
2023-02-05T07:20:59.255Z,83.5
2023-02-05T07:36:08.736Z,83.4
2023-02-05T07:51:18.547Z,83.4
2023-02-05T08:06:28.026Z,83.2
2023-02-05T08:21:37.474Z,83.1
2023-02-05T08:36:46.662Z,83.1
2023-02-05T08:51:56.444Z,83.3
2023-02-05T09:07:05.988Z,83.4
2023-02-05T09:22:15.800Z,83.5
2023-02-05T09:37:24.474Z,83.5
2023-02-05T09:52:33.942Z,83.4
2023-02-05T10:07:43.671Z,83.4
2023-02-05T10:22:53.331Z,83.6
2023-02-05T10:38:06.275Z,83.6
2023-02-05T10:53:16.098Z,83.6
2023-02-05T11:08:24.879Z,83.6
2023-02-05T11:23:34.738Z,83.4
2023-02-05T11:38:44.598Z,83.5
2023-02-05T11:53:55.085Z,83.5
2023-02-05T12:09:05.016Z,83.5
2023-02-05T12:24:14.710Z,83.6
2023-02-05T12:39:24.209Z,83.7
2023-02-05T12:54:34.662Z,83.7
2023-02-05T13:09:44.364Z,83.7
2023-02-05T13:24:54.079Z,83.8
2023-02-05T13:40:04.917Z,83.6
2023-02-05T13:55:14.223Z,83.9
2023-02-05T14:10:23.573Z,84
2023-02-05T14:25:34.149Z,84
2023-02-05T14:40:43.659Z,84
2023-02-05T14:55:53.209Z,84.1
2023-02-05T15:11:02.882Z,84.3
2023-02-05T15:26:13.501Z,84.4
2023-02-05T15:41:21.860Z,84.5
2023-02-05T15:56:30.947Z,84.8
2023-02-05T16:11:42.284Z,84.8
2023-02-05T16:26:51.297Z,85.1
2023-02-05T16:41:59.926Z,84.9
2023-02-05T16:57:09.265Z,85
2023-02-05T17:12:19.118Z,85.1
2023-02-05T17:27:29.052Z,85.1
2023-02-05T17:42:39.586Z,85.1
2023-02-05T17:57:48.952Z,85.1
2023-02-05T18:12:59.541Z,85.1
2023-02-05T18:28:09.322Z,85.2
2023-02-05T18:43:19.508Z,85.2
2023-02-05T18:58:29.263Z,85.2
2023-02-05T19:13:38.901Z,85.9
2023-02-05T19:28:48.618Z,85.5
2023-02-05T19:43:57.863Z,85.4
2023-02-05T19:59:06.368Z,85.8
2023-02-05T20:14:15.812Z,85.4
2023-02-05T20:29:25.301Z,85.4
2023-02-05T20:44:41.143Z,85.4
2023-02-05T20:59:50.593Z,85.4
2023-02-05T21:15:00.528Z,85.5
2023-02-05T21:30:10.452Z,85.5
2023-02-05T21:45:20.964Z,85.6
2023-02-05T22:00:30.195Z,85.6
2023-02-05T22:15:39.806Z,85.6
2023-02-05T22:30:50.077Z,85.6
2023-02-05T22:46:00.364Z,85.7
2023-02-05T23:01:10.343Z,85.6
2023-02-05T23:16:19.596Z,85.8
2023-02-05T23:31:29.479Z,85.8
2023-02-05T23:46:38.963Z,85.9
